メインページ
METAR-TAF:

METAR-TAF

空港 :

バミューダ諸島, バミューダ諸島

バミューダ国際空港

緯度: 32-22N, 経度: 064-41W, 海抜: 6m

現時点の気象観測

当レポートは1時間0分前の10:55(UTC)に作成
西の風 10kt
気温 20°C
湿度 83%
気圧 1018 hPa
視程10km以上
高度1200ftの雲はほとんどない
高度4000ftの千切れ雲あり

METAR: TXKF 231055Z 28010KT 9999 FEW012 BKN040 20/17 Q1018

時間: 08:55 (11:55 UTC)

予報

当レポートは20分前の11:35(UTC)に作成
予報は23日の 12時(UTC)から 24日の 12時(UTC)まで有効
西の風 10kt
視程10km以上
高度1200ftの雲は散在している
高度4000ftの千切れ雲あり
確率 30% :
23日の 12時(UTC)から 23日の 15時(UTC)まで一時的に
高度1200ftの千切れ雲あり
24日の 02時(UTC)から 24日の 06時(UTC)まで徐々に
変向風 5kt

TAF: TXKF 231135Z 2312/2412 27010KT 9999 SCT012 BKN040 PROB30 TEMPO 2312/2315 BKN012 BECMG 2402/2406 VRB05KT

4,000以上の空港の気象観測と天気予報(METAR報とTAF報)

利用可能な観測所は地図上に黄色い丸と赤い丸で示す。

丸の上にカーソルを重ねると観測所名を参照できる。

次にクリックすると気象観測と天気予報を参照できる。

マップの切り替え:黒色「×」印の緑ボタンをクリックして拡大、「-」印の緑ボタンをクリックして縮小、緑色の三角印をクリックして隣りの地図に切り替え


METAR-TAF: